Time;durP1;ratioP1;P1;durP2;ratioP2;P2;SDS_P1;SDS_P2;PMS_P1;PMS_P2;Temp;Humidity;BMP_temperature;BMP_pressure;BME280_temperature;BME280_humidity;BME280_pressure;Samples;Min_cycle;Max_cycle;Signal;HPM_P1;HPM_P2
2021/07/26 00:01:02;;;;;;;0.10;0.00;;;;;;;;;;10453252;28;20045;-28
2021/07/26 00:06:06;;;;;;;0.00;0.00;;;;;;;;;;10460139;28;20052;-30
2021/07/26 00:11:11;;;;;;;0.00;0.00;;;;;;;;;;10458260;28;20037;-29
2021/07/26 00:16:14;;;;;;;0.10;0.00;;;;;;;;;;10449283;28;20711;-30
2021/07/26 00:21:18;;;;;;;0.15;0.03;;;;;;;;;;10456678;28;20049;-28
2021/07/26 00:26:20;;;;;;;0.00;0.00;;;;;;;;;;10463495;28;20041;-29
2021/07/26 00:31:24;;;;;;;0.30;0.00;;;;;;;;;;10453891;28;20363;-30
2021/07/26 00:36:28;;;;;;;0.00;0.00;;;;;;;;;;10457277;28;20037;-29
2021/07/26 00:41:31;;;;;;;0.00;0.00;;;;;;;;;;10464577;28;20448;-29
2021/07/26 00:46:34;;;;;;;0.00;0.00;;;;;;;;;;10458317;28;20062;-28
2021/07/26 00:51:38;;;;;;;0.00;0.00;;;;;;;;;;10456341;28;20390;-28
2021/07/26 00:56:42;;;;;;;0.10;0.00;;;;;;;;;;10461123;28;20044;-29
2021/07/26 01:01:45;;;;;;;0.00;0.00;;;;;;;;;;10455767;28;20044;-30
2021/07/26 01:06:50;;;;;;;0.00;0.00;;;;;;;;;;10458626;28;20139;-29
2021/07/26 01:11:52;;;;;;;0.00;0.00;;;;;;;;;;10460859;28;20597;-29
2021/07/26 01:16:55;;;;;;;0.22;0.10;;;;;;;;;;10452849;28;20580;-29
2021/07/26 01:21:59;;;;;;;0.30;0.00;;;;;;;;;;10457721;28;20064;-29
2021/07/26 01:27:02;;;;;;;0.00;0.00;;;;;;;;;;10454219;28;20037;-28
2021/07/26 01:32:05;;;;;;;0.00;0.00;;;;;;;;;;10454564;28;20045;-29
2021/07/26 01:37:09;;;;;;;0.00;0.00;;;;;;;;;;10463524;28;20045;-29
2021/07/26 01:42:12;;;;;;;0.15;0.00;;;;;;;;;;10450040;28;20418;-28
2021/07/26 01:47:16;;;;;;;0.00;0.00;;;;;;;;;;10445936;28;20041;-28
2021/07/26 01:52:21;;;;;;;0.00;0.00;;;;;;;;;;10448240;28;20382;-29
2021/07/26 01:57:24;;;;;;;0.00;0.00;;;;;;;;;;10444873;28;20044;-27
2021/07/26 02:02:28;;;;;;;0.10;0.00;;;;;;;;;;10437492;28;20752;-28
2021/07/26 02:07:32;;;;;;;0.00;0.00;;;;;;;;;;10442223;28;20044;-28
2021/07/26 02:12:35;;;;;;;0.85;0.00;;;;;;;;;;10442619;28;20041;-24
2021/07/26 02:17:37;;;;;;;0.03;0.00;;;;;;;;;;10438823;28;20033;-23
2021/07/26 02:22:41;;;;;;;0.00;0.00;;;;;;;;;;10439453;28;20053;-23
2021/07/26 02:27:44;;;;;;;0.10;0.10;;;;;;;;;;10439825;28;20044;-25
2021/07/26 02:32:47;;;;;;;0.10;0.10;;;;;;;;;;10441543;28;20041;-23
2021/07/26 02:37:52;;;;;;;0.00;0.00;;;;;;;;;;10435868;28;20052;-23
2021/07/26 02:42:55;;;;;;;0.00;0.00;;;;;;;;;;10441293;28;20044;-24
2021/07/26 02:47:57;;;;;;;0.00;0.00;;;;;;;;;;10440548;28;20044;-24
2021/07/26 02:53:02;;;;;;;0.10;0.00;;;;;;;;;;10428966;28;20056;-24
2021/07/26 02:58:04;;;;;;;0.00;0.00;;;;;;;;;;10439447;28;20402;-23
2021/07/26 03:03:07;;;;;;;0.00;0.00;;;;;;;;;;10439328;28;20055;-23
2021/07/26 03:08:11;;;;;;;0.10;0.10;;;;;;;;;;10439831;28;20044;-23
2021/07/26 03:13:14;;;;;;;0.10;0.00;;;;;;;;;;10432269;28;20044;-23
2021/07/26 03:18:43;;;;;;;0.00;0.00;;;;;;;;;;10439559;28;20208;-23
2021/07/26 03:23:47;;;;;;;0.10;0.10;;;;;;;;;;10434138;28;20076;-23
2021/07/26 03:28:50;;;;;;;0.00;0.00;;;;;;;;;;10439202;28;20049;-23
2021/07/26 03:33:52;;;;;;;0.00;0.00;;;;;;;;;;10432320;28;20041;-23
2021/07/26 03:38:57;;;;;;;0.00;0.00;;;;;;;;;;10439198;28;20059;-24
2021/07/26 03:43:59;;;;;;;0.00;0.00;;;;;;;;;;10439782;28;20398;-24
2021/07/26 03:49:02;;;;;;;0.10;0.00;;;;;;;;;;10437450;28;20116;-23
2021/07/26 03:54:06;;;;;;;0.00;0.00;;;;;;;;;;10439174;28;20040;-23
2021/07/26 03:59:08;;;;;;;0.00;0.00;;;;;;;;;;10439022;28;20375;-23
2021/07/26 04:04:11;;;;;;;0.00;0.00;;;;;;;;;;10433456;28;20045;-24
2021/07/26 04:09:15;;;;;;;0.00;0.00;;;;;;;;;;10446210;28;20036;-23
2021/07/26 04:14:21;;;;;;;0.03;0.03;;;;;;;;;;10465049;28;20058;-23
2021/07/26 04:19:24;;;;;;;0.00;0.00;;;;;;;;;;10406816;28;20490;-23
2021/07/26 04:24:27;;;;;;;0.00;0.00;;;;;;;;;;10445572;28;20060;-23
2021/07/26 04:29:30;;;;;;;0.00;0.00;;;;;;;;;;10483100;28;20044;-23
2021/07/26 04:34:33;;;;;;;0.00;0.00;;;;;;;;;;10445634;28;20049;-24
2021/07/26 04:39:37;;;;;;;0.00;0.00;;;;;;;;;;10453746;28;20496;-23
2021/07/26 04:44:40;;;;;;;0.10;0.10;;;;;;;;;;10458510;28;20045;-23
2021/07/26 04:49:43;;;;;;;0.00;0.00;;;;;;;;;;10446428;28;20041;-23
2021/07/26 04:54:47;;;;;;;0.00;0.00;;;;;;;;;;10450087;28;20045;-23
2021/07/26 04:59:49;;;;;;;0.00;0.00;;;;;;;;;;10448027;28;20499;-23
2021/07/26 05:04:52;;;;;;;0.00;0.00;;;;;;;;;;10468785;28;20405;-23
2021/07/26 05:09:56;;;;;;;0.00;0.00;;;;;;;;;;10483752;28;20130;-23
2021/07/26 05:14:59;;;;;;;0.00;0.00;;;;;;;;;;10443228;28;20053;-24
2021/07/26 05:20:01;;;;;;;0.00;0.00;;;;;;;;;;10443422;28;20044;-24
2021/07/26 05:25:06;;;;;;;0.00;0.00;;;;;;;;;;10469287;28;20089;-23
2021/07/26 05:30:09;;;;;;;0.10;0.10;;;;;;;;;;10484018;28;20494;-24
2021/07/26 05:35:12;;;;;;;0.00;0.00;;;;;;;;;;10442992;28;20485;-23
2021/07/26 05:40:16;;;;;;;0.00;0.00;;;;;;;;;;10444582;28;20048;-23
2021/07/26 05:45:19;;;;;;;0.08;0.00;;;;;;;;;;10440293;28;20060;-24
2021/07/26 05:50:21;;;;;;;0.20;0.00;;;;;;;;;;10434324;28;20040;-23
2021/07/26 05:55:25;;;;;;;0.00;0.00;;;;;;;;;;10442976;28;20052;-23
2021/07/26 06:00:36;;;;;;;0.17;0.00;;;;;;;;;;10443152;28;20490;-23
2021/07/26 06:05:39;;;;;;;0.10;0.00;;;;;;;;;;10441585;28;20052;-24
2021/07/26 06:10:43;;;;;;;0.00;0.00;;;;;;;;;;10442460;28;20459;-23
2021/07/26 06:15:46;;;;;;;0.00;0.00;;;;;;;;;;10441702;28;20136;-23
2021/07/26 06:20:48;;;;;;;0.00;0.00;;;;;;;;;;10432128;28;20513;-23
2021/07/26 06:25:52;;;;;;;0.00;0.00;;;;;;;;;;10440956;28;20056;-23
2021/07/26 06:30:55;;;;;;;0.00;0.00;;;;;;;;;;10441176;28;20052;-23
2021/07/26 06:35:57;;;;;;;0.00;0.00;;;;;;;;;;10441315;28;20039;-23
2021/07/26 06:41:01;;;;;;;0.00;0.00;;;;;;;;;;10440979;28;20060;-23
2021/07/26 06:46:04;;;;;;;0.03;0.00;;;;;;;;;;10440183;28;20044;-23
2021/07/26 06:51:07;;;;;;;0.00;0.00;;;;;;;;;;10424712;28;20045;-23
2021/07/26 06:56:12;;;;;;;0.00;0.00;;;;;;;;;;10433042;28;20073;-23
2021/07/26 07:01:15;;;;;;;0.00;0.00;;;;;;;;;;10428183;28;20385;-23
2021/07/26 07:06:20;;;;;;;0.00;0.00;;;;;;;;;;10468820;28;20117;-23
2021/07/26 07:11:24;;;;;;;0.00;0.00;;;;;;;;;;10472179;28;20052;-23
2021/07/26 07:16:27;;;;;;;0.00;0.00;;;;;;;;;;10459905;28;20056;-23
2021/07/26 07:21:31;;;;;;;0.00;0.00;;;;;;;;;;10440754;28;20057;-23
2021/07/26 07:26:35;;;;;;;0.00;0.00;;;;;;;;;;10445270;28;20896;-23
2021/07/26 07:31:38;;;;;;;0.00;0.00;;;;;;;;;;10434202;28;20106;-23
2021/07/26 07:36:41;;;;;;;0.00;0.00;;;;;;;;;;10440412;28;20041;-23
2021/07/26 07:41:46;;;;;;;0.00;0.00;;;;;;;;;;10442962;28;20068;-23
2021/07/26 07:46:48;;;;;;;0.00;0.00;;;;;;;;;;10444122;28;20033;-23
2021/07/26 07:51:51;;;;;;;0.00;0.00;;;;;;;;;;10427184;28;20116;-23
2021/07/26 07:56:55;;;;;;;0.00;0.00;;;;;;;;;;10435779;28;20120;-23
2021/07/26 08:02:03;;;;;;;0.00;0.00;;;;;;;;;;10437592;28;20131;-23
2021/07/26 08:07:06;;;;;;;0.10;0.00;;;;;;;;;;10447927;28;20348;-23
2021/07/26 08:12:10;;;;;;;0.00;0.00;;;;;;;;;;10448093;28;20494;-24
2021/07/26 08:17:13;;;;;;;0.00;0.00;;;;;;;;;;10438325;28;20047;-23
2021/07/26 08:22:16;;;;;;;0.32;0.00;;;;;;;;;;10447022;28;20730;-23
2021/07/26 08:27:20;;;;;;;0.00;0.00;;;;;;;;;;10438806;28;20051;-24
2021/07/26 08:32:23;;;;;;;0.00;0.00;;;;;;;;;;10446154;28;20509;-23
2021/07/26 08:37:29;;;;;;;0.00;0.00;;;;;;;;;;10445571;28;20410;-23
2021/07/26 08:42:33;;;;;;;0.00;0.00;;;;;;;;;;10445284;28;20047;-23
2021/07/26 08:47:39;;;;;;;0.00;0.00;;;;;;;;;;10438982;28;20048;-23
2021/07/26 08:52:43;;;;;;;0.55;0.00;;;;;;;;;;10449441;28;20536;-23
2021/07/26 08:57:47;;;;;;;0.00;0.00;;;;;;;;;;10488011;28;20044;-23
2021/07/26 09:02:50;;;;;;;0.00;0.00;;;;;;;;;;10417465;28;20044;-23
2021/07/26 09:07:53;;;;;;;0.00;0.00;;;;;;;;;;10487212;28;20037;-24
2021/07/26 09:12:57;;;;;;;0.00;0.00;;;;;;;;;;10456763;28;20146;-23
2021/07/26 09:18:01;;;;;;;0.00;0.00;;;;;;;;;;10444006;28;20048;-23
2021/07/26 09:23:10;;;;;;;0.10;0.00;;;;;;;;;;10449049;28;20083;-24
2021/07/26 09:28:15;;;;;;;0.00;0.00;;;;;;;;;;10445178;28;20045;-23
2021/07/26 09:33:19;;;;;;;0.00;0.00;;;;;;;;;;10445304;28;20045;-24
2021/07/26 09:38:24;;;;;;;0.00;0.00;;;;;;;;;;10443404;28;20033;-24
2021/07/26 09:43:28;;;;;;;0.00;0.00;;;;;;;;;;10443843;28;20055;-23
2021/07/26 09:48:32;;;;;;;0.00;0.00;;;;;;;;;;10442281;28;20321;-23
2021/07/26 09:53:55;;;;;;;0.10;0.00;;;;;;;;;;10444023;28;20037;-23
2021/07/26 09:58:59;;;;;;;0.00;0.00;;;;;;;;;;10437678;28;20504;-23
2021/07/26 10:04:02;;;;;;;0.00;0.00;;;;;;;;;;10441350;28;20059;-23
2021/07/26 10:09:04;;;;;;;0.00;0.00;;;;;;;;;;10439566;28;20394;-24
2021/07/26 10:14:11;;;;;;;0.00;0.00;;;;;;;;;;10432213;28;20406;-24
2021/07/26 10:19:14;;;;;;;0.00;0.00;;;;;;;;;;10441707;28;20036;-24
2021/07/26 10:24:18;;;;;;;0.00;0.00;;;;;;;;;;10443470;28;20060;-23
2021/07/26 10:29:22;;;;;;;0.10;0.00;;;;;;;;;;10439923;28;20045;-23
2021/07/26 10:34:34;;;;;;;0.00;0.00;;;;;;;;;;10441143;28;20122;-23
2021/07/26 10:39:56;;;;;;;0.00;0.00;;;;;;;;;;10441153;28;20434;-23
2021/07/26 10:45:00;;;;;;;0.00;0.00;;;;;;;;;;10438267;28;20041;-23
2021/07/26 10:50:13;;;;;;;0.25;0.00;;;;;;;;;;10425664;28;20041;-24
2021/07/26 10:55:35;;;;;;;0.00;0.00;;;;;;;;;;10422784;28;20485;-23
2021/07/26 11:00:39;;;;;;;0.00;0.00;;;;;;;;;;10403969;28;20485;-24
2021/07/26 11:05:42;;;;;;;0.47;0.00;;;;;;;;;;10457003;28;20098;-23
2021/07/26 11:10:45;;;;;;;0.00;0.00;;;;;;;;;;10480033;28;20123;-23
2021/07/26 11:15:50;;;;;;;0.00;0.00;;;;;;;;;;10432442;28;20077;-24
2021/07/26 11:20:57;;;;;;;0.00;0.00;;;;;;;;;;10400294;28;20611;-23
2021/07/26 11:26:01;;;;;;;0.00;0.00;;;;;;;;;;10460194;28;20048;-23
2021/07/26 11:31:05;;;;;;;0.00;0.00;;;;;;;;;;10438460;28;20045;-23
2021/07/26 11:36:09;;;;;;;0.00;0.00;;;;;;;;;;10440136;28;20059;-23
2021/07/26 11:41:16;;;;;;;0.08;0.00;;;;;;;;;;10440257;28;20128;-24
2021/07/26 11:46:20;;;;;;;0.00;0.00;;;;;;;;;;10432308;28;20051;-23
2021/07/26 11:51:24;;;;;;;0.00;0.00;;;;;;;;;;10439798;28;20056;-23
2021/07/26 11:56:29;;;;;;;0.00;0.00;;;;;;;;;;10439263;28;20048;-24
2021/07/26 12:01:33;;;;;;;0.00;0.00;;;;;;;;;;10430999;28;20041;-23
2021/07/26 12:06:49;;;;;;;0.00;0.00;;;;;;;;;;10438236;28;20049;-23
2021/07/26 12:11:52;;;;;;;0.00;0.00;;;;;;;;;;10454740;28;20321;-23
2021/07/26 12:17:13;;;;;;;0.00;0.00;;;;;;;;;;10432143;28;20044;-24
2021/07/26 12:22:18;;;;;;;0.00;0.00;;;;;;;;;;10438670;28;20049;-24
2021/07/26 12:27:33;;;;;;;0.00;0.00;;;;;;;;;;10441059;28;20041;-23
2021/07/26 12:32:49;;;;;;;0.00;0.00;;;;;;;;;;10448426;28;20506;-24
2021/07/26 12:38:03;;;;;;;0.00;0.00;;;;;;;;;;10449265;28;20056;-23
2021/07/26 12:43:07;;;;;;;0.10;0.00;;;;;;;;;;10445953;28;20052;-24
2021/07/26 12:48:22;;;;;;;0.00;0.00;;;;;;;;;;10434604;28;21022;-24
2021/07/26 12:53:26;;;;;;;0.05;0.00;;;;;;;;;;10465979;28;20075;-23
2021/07/26 12:58:30;;;;;;;0.00;0.00;;;;;;;;;;10483312;28;20052;-24
2021/07/26 13:03:33;;;;;;;0.00;0.00;;;;;;;;;;10452631;28;20044;-23
2021/07/26 13:08:37;;;;;;;0.00;0.00;;;;;;;;;;10487474;28;20041;-24
2021/07/26 13:13:40;;;;;;;0.00;0.00;;;;;;;;;;10440836;28;20382;-24
2021/07/26 13:18:44;;;;;;;0.00;0.00;;;;;;;;;;10441878;28;20071;-23
2021/07/26 13:23:48;;;;;;;0.00;0.00;;;;;;;;;;10456909;28;20408;-23
2021/07/26 13:28:51;;;;;;;0.00;0.00;;;;;;;;;;10465306;28;20049;-24
2021/07/26 13:33:53;;;;;;;0.00;0.00;;;;;;;;;;10416751;28;20076;-24
2021/07/26 13:38:58;;;;;;;0.05;0.00;;;;;;;;;;10443210;28;20045;-23
2021/07/26 13:44:01;;;;;;;0.00;0.00;;;;;;;;;;10442966;28;20044;-23
2021/07/26 13:49:03;;;;;;;0.00;0.00;;;;;;;;;;10441824;28;20508;-23
2021/07/26 13:54:07;;;;;;;0.52;0.00;;;;;;;;;;10443427;28;20055;-23
2021/07/26 13:59:10;;;;;;;0.00;0.00;;;;;;;;;;10427095;28;20122;-23
2021/07/26 14:04:13;;;;;;;0.00;0.00;;;;;;;;;;10416324;28;20054;-25
2021/07/26 14:09:17;;;;;;;0.00;0.00;;;;;;;;;;10420444;28;20041;-25
2021/07/26 14:14:19;;;;;;;0.10;0.00;;;;;;;;;;10431182;28;20096;-24
2021/07/26 14:19:24;;;;;;;0.00;0.00;;;;;;;;;;10423726;28;20410;-25
2021/07/26 14:24:28;;;;;;;0.10;0.00;;;;;;;;;;10423883;28;20053;-25
2021/07/26 14:29:31;;;;;;;0.00;0.00;;;;;;;;;;10418511;28;20422;-25
2021/07/26 14:34:34;;;;;;;0.00;0.00;;;;;;;;;;10416711;28;20037;-25
2021/07/26 14:39:39;;;;;;;0.00;0.00;;;;;;;;;;10422028;28;20072;-24
2021/07/26 14:44:41;;;;;;;0.00;0.00;;;;;;;;;;10430942;28;20041;-24
2021/07/26 14:49:44;;;;;;;0.00;0.00;;;;;;;;;;10431514;28;20057;-24
2021/07/26 14:54:48;;;;;;;0.00;0.00;;;;;;;;;;10428083;28;20041;-25
2021/07/26 14:59:51;;;;;;;0.00;0.00;;;;;;;;;;10417881;28;20049;-24
2021/07/26 15:04:54;;;;;;;0.00;0.00;;;;;;;;;;10423034;28;20484;-25
2021/07/26 15:09:58;;;;;;;0.00;0.00;;;;;;;;;;10422309;28;20045;-24
2021/07/26 15:15:01;;;;;;;0.00;0.00;;;;;;;;;;10421450;28;20045;-24
2021/07/26 15:20:04;;;;;;;0.00;0.00;;;;;;;;;;10420662;28;20077;-24
2021/07/26 15:25:10;;;;;;;0.00;0.00;;;;;;;;;;10423781;28;20520;-27
2021/07/26 15:30:13;;;;;;;0.00;0.00;;;;;;;;;;10414965;28;20140;-25
2021/07/26 15:35:16;;;;;;;0.00;0.00;;;;;;;;;;10417413;28;20053;-24
2021/07/26 15:40:20;;;;;;;0.00;0.00;;;;;;;;;;10416895;28;20044;-24
2021/07/26 15:45:23;;;;;;;0.00;0.00;;;;;;;;;;10424332;28;20131;-25
2021/07/26 15:50:26;;;;;;;0.00;0.00;;;;;;;;;;10421879;28;20147;-24
2021/07/26 15:55:30;;;;;;;0.00;0.00;;;;;;;;;;10424583;28;20048;-25
2021/07/26 16:00:33;;;;;;;0.00;0.00;;;;;;;;;;10427178;28;20505;-25
2021/07/26 16:05:36;;;;;;;0.00;0.00;;;;;;;;;;10426743;28;20487;-24
2021/07/26 16:10:41;;;;;;;0.10;0.03;;;;;;;;;;10433132;28;20041;-25
2021/07/26 16:15:46;;;;;;;0.00;0.00;;;;;;;;;;10461009;28;20051;-24
2021/07/26 16:20:49;;;;;;;0.25;0.00;;;;;;;;;;10408065;28;20418;-24
2021/07/26 16:25:52;;;;;;;0.35;0.00;;;;;;;;;;10468647;28;20490;-25
2021/07/26 16:30:55;;;;;;;0.00;0.00;;;;;;;;;;10486578;28;20041;-24
2021/07/26 16:35:58;;;;;;;0.15;0.00;;;;;;;;;;10446654;28;20055;-25
2021/07/26 16:41:02;;;;;;;0.00;0.00;;;;;;;;;;10442889;28;20041;-24
2021/07/26 16:46:05;;;;;;;0.00;0.00;;;;;;;;;;10474259;28;20049;-24
2021/07/26 16:51:08;;;;;;;0.00;0.00;;;;;;;;;;10485736;28;20048;-24
2021/07/26 16:56:12;;;;;;;0.00;0.00;;;;;;;;;;10423421;28;20042;-24
2021/07/26 17:01:15;;;;;;;0.00;0.00;;;;;;;;;;10403245;28;20152;-24
2021/07/26 17:06:18;;;;;;;0.00;0.00;;;;;;;;;;10466049;28;20052;-24
2021/07/26 17:11:22;;;;;;;0.00;0.00;;;;;;;;;;10450210;28;20034;-25
2021/07/26 17:16:24;;;;;;;0.00;0.00;;;;;;;;;;10452589;28;20049;-24
2021/07/26 17:21:27;;;;;;;0.00;0.00;;;;;;;;;;10442967;28;20041;-24
2021/07/26 17:26:32;;;;;;;0.00;0.00;;;;;;;;;;10475124;28;20485;-24
2021/07/26 17:31:35;;;;;;;0.00;0.00;;;;;;;;;;10425301;28;20045;-25
2021/07/26 17:36:39;;;;;;;0.00;0.00;;;;;;;;;;10440959;28;20049;-24
2021/07/26 17:41:43;;;;;;;0.00;0.00;;;;;;;;;;10439627;28;20045;-25
2021/07/26 17:46:47;;;;;;;0.00;0.00;;;;;;;;;;10437638;28;20041;-24
2021/07/26 17:51:49;;;;;;;0.00;0.00;;;;;;;;;;10438585;28;20037;-24
2021/07/26 17:56:56;;;;;;;0.00;0.00;;;;;;;;;;10438395;28;20064;-25
2021/07/26 18:02:00;;;;;;;0.00;0.00;;;;;;;;;;10438697;28;20048;-25
2021/07/26 18:07:10;;;;;;;0.00;0.00;;;;;;;;;;10430999;28;20516;-23
2021/07/26 18:12:14;;;;;;;0.00;0.00;;;;;;;;;;10422902;28;20041;-23
2021/07/26 18:17:18;;;;;;;0.00;0.00;;;;;;;;;;10428309;28;20041;-24
2021/07/26 18:22:20;;;;;;;0.00;0.00;;;;;;;;;;10434472;28;20045;-23
2021/07/26 18:27:25;;;;;;;0.00;0.00;;;;;;;;;;10433681;28;20045;-25
2021/07/26 18:32:28;;;;;;;0.00;0.00;;;;;;;;;;10430869;28;20041;-24
2021/07/26 18:37:31;;;;;;;0.00;0.00;;;;;;;;;;10426258;28;20045;-25
2021/07/26 18:42:35;;;;;;;0.00;0.00;;;;;;;;;;10424018;28;20056;-25
2021/07/26 18:47:38;;;;;;;0.00;0.00;;;;;;;;;;10417353;28;20037;-25
2021/07/26 18:52:41;;;;;;;0.00;0.00;;;;;;;;;;10425666;28;20052;-24
2021/07/26 18:57:45;;;;;;;0.00;0.00;;;;;;;;;;10431951;28;20052;-25
2021/07/26 19:02:48;;;;;;;0.00;0.00;;;;;;;;;;10425824;28;20084;-24
2021/07/26 19:07:50;;;;;;;0.00;0.00;;;;;;;;;;10421568;28;20510;-26
2021/07/26 19:12:54;;;;;;;0.03;0.00;;;;;;;;;;10418692;28;20045;-25
2021/07/26 19:17:58;;;;;;;0.00;0.00;;;;;;;;;;10418993;28;20044;-24
2021/07/26 19:23:02;;;;;;;0.00;0.00;;;;;;;;;;10414623;28;20049;-26
2021/07/26 19:28:06;;;;;;;0.00;0.00;;;;;;;;;;10422899;28;20069;-24
2021/07/26 19:33:09;;;;;;;0.00;0.00;;;;;;;;;;10418563;28;20046;-24
2021/07/26 19:38:12;;;;;;;0.00;0.00;;;;;;;;;;10420943;28;20376;-25
2021/07/26 19:43:16;;;;;;;0.00;0.00;;;;;;;;;;10430357;28;20040;-24
2021/07/26 19:48:19;;;;;;;0.00;0.00;;;;;;;;;;10419400;28;20051;-24
2021/07/26 19:53:21;;;;;;;0.00;0.00;;;;;;;;;;10418853;28;20398;-24
2021/07/26 19:58:25;;;;;;;0.00;0.00;;;;;;;;;;10424001;28;20045;-24
2021/07/26 20:03:28;;;;;;;0.00;0.00;;;;;;;;;;10415010;28;20509;-24
2021/07/26 20:08:31;;;;;;;0.00;0.00;;;;;;;;;;10418695;28;20041;-25
2021/07/26 20:13:35;;;;;;;0.00;0.00;;;;;;;;;;10414795;28;20045;-25
2021/07/26 20:18:39;;;;;;;0.00;0.00;;;;;;;;;;10414005;28;20072;-24
2021/07/26 20:23:43;;;;;;;0.00;0.00;;;;;;;;;;10415654;28;20136;-24
2021/07/26 20:28:47;;;;;;;0.00;0.00;;;;;;;;;;10413623;28;20509;-24
2021/07/26 20:33:50;;;;;;;0.00;0.00;;;;;;;;;;10416303;28;20045;-25
2021/07/26 20:38:52;;;;;;;0.00;0.00;;;;;;;;;;10412827;28;20072;-24
2021/07/26 20:43:56;;;;;;;0.00;0.00;;;;;;;;;;10414213;28;20108;-24
2021/07/26 20:49:02;;;;;;;0.00;0.00;;;;;;;;;;10416966;28;20041;-24
2021/07/26 20:54:04;;;;;;;0.17;0.03;;;;;;;;;;10419348;28;20508;-24
2021/07/26 20:59:10;;;;;;;0.00;0.00;;;;;;;;;;10420565;28;20052;-24
2021/07/26 21:04:12;;;;;;;0.00;0.00;;;;;;;;;;10417304;28;20033;-26
2021/07/26 21:09:15;;;;;;;0.00;0.00;;;;;;;;;;10425111;28;20040;-24
2021/07/26 21:14:24;;;;;;;0.00;0.00;;;;;;;;;;10454876;28;20049;-24
2021/07/26 21:19:27;;;;;;;0.00;0.00;;;;;;;;;;10465713;28;20529;-24
2021/07/26 21:24:30;;;;;;;0.00;0.00;;;;;;;;;;10441974;28;20042;-24
2021/07/26 21:29:34;;;;;;;0.00;0.00;;;;;;;;;;10442857;28;20056;-24
2021/07/26 21:34:37;;;;;;;0.00;0.00;;;;;;;;;;10437690;28;20048;-24
2021/07/26 21:39:40;;;;;;;0.00;0.00;;;;;;;;;;10440767;28;20055;-24
2021/07/26 21:44:43;;;;;;;0.00;0.00;;;;;;;;;;10440797;28;20037;-24
2021/07/26 21:49:47;;;;;;;0.00;0.00;;;;;;;;;;10438830;28;20056;-24
2021/07/26 21:55:00;;;;;;;0.00;0.00;;;;;;;;;;10440324;28;20041;-25
2021/07/26 22:00:05;;;;;;;0.10;0.00;;;;;;;;;;10439821;28;20041;-24
2021/07/26 22:05:15;;;;;;;0.00;0.00;;;;;;;;;;10434060;28;20044;-25
2021/07/26 22:10:18;;;;;;;0.00;0.00;;;;;;;;;;10439836;28;20075;-24
2021/07/26 22:15:22;;;;;;;0.00;0.00;;;;;;;;;;10438959;28;20056;-24
2021/07/26 22:20:24;;;;;;;0.00;0.00;;;;;;;;;;10434960;28;20071;-23
2021/07/26 22:25:27;;;;;;;0.00;0.00;;;;;;;;;;10438545;28;20048;-24
2021/07/26 22:30:31;;;;;;;0.00;0.00;;;;;;;;;;10439400;28;20041;-24
2021/07/26 22:35:34;;;;;;;0.00;0.00;;;;;;;;;;10430044;28;20044;-24
2021/07/26 22:40:37;;;;;;;0.00;0.00;;;;;;;;;;10438994;28;20047;-24
2021/07/26 22:45:41;;;;;;;0.00;0.00;;;;;;;;;;10437727;28;20512;-24
2021/07/26 22:50:44;;;;;;;0.00;0.00;;;;;;;;;;10434418;28;20056;-24
2021/07/26 22:55:47;;;;;;;0.00;0.00;;;;;;;;;;10437850;28;20814;-24
2021/07/26 23:00:52;;;;;;;0.00;0.00;;;;;;;;;;10439007;28;20045;-24
2021/07/26 23:05:55;;;;;;;0.00;0.00;;;;;;;;;;10425841;28;20099;-24
2021/07/26 23:10:58;;;;;;;0.00;0.00;;;;;;;;;;10438873;28;20410;-24
2021/07/26 23:16:05;;;;;;;0.00;0.00;;;;;;;;;;10437752;28;20049;-24
2021/07/26 23:21:08;;;;;;;0.00;0.00;;;;;;;;;;10437923;28;20564;-24
2021/07/26 23:26:12;;;;;;;0.00;0.00;;;;;;;;;;10436735;28;20048;-24
2021/07/26 23:31:16;;;;;;;0.00;0.00;;;;;;;;;;10429291;28;20045;-24
2021/07/26 23:36:19;;;;;;;0.00;0.00;;;;;;;;;;10426910;28;20048;-24
2021/07/26 23:41:22;;;;;;;0.15;0.03;;;;;;;;;;10436970;28;20048;-24
2021/07/26 23:46:26;;;;;;;0.00;0.00;;;;;;;;;;10435136;28;20051;-24
2021/07/26 23:51:29;;;;;;;0.00;0.00;;;;;;;;;;10435009;28;20046;-24
2021/07/26 23:56:32;;;;;;;0.00;0.00;;;;;;;;;;10436161;28;20045;-25
